Time;durP1;ratioP1;P1;durP2;ratioP2;P2;SDS_P1;SDS_P2;PMS_P1;PMS_P2;Temp;Humidity;BMP_temperature;BMP_pressure;BME280_temperature;BME280_humidity;BME280_pressure;Samples;Min_cycle;Max_cycle;Signal;HPM_P1;HPM_P2
2024/02/09 00:01:49;;;;;;;5.10;2.60;;;;;;;10.01;67.22;97501.53;10434515;28;20044;-60
2024/02/09 00:06:51;;;;;;;10.55;2.78;;;;;;;9.98;67.23;97481.75;10434400;28;20515;-60
2024/02/09 00:11:53;;;;;;;10.25;2.83;;;;;;;9.89;67.50;97464.34;10434560;28;20052;-60
2024/02/09 00:16:56;;;;;;;6.70;2.90;;;;;;;9.88;67.51;97460.13;10429900;28;20045;-60
2024/02/09 00:21:59;;;;;;;14.38;3.20;;;;;;;9.87;67.43;97462.88;10431408;28;20129;-60
2024/02/09 00:27:01;;;;;;;16.08;4.38;;;;;;;9.79;67.49;97436.69;10428822;28;20041;-60
2024/02/09 00:32:04;;;;;;;7.35;2.53;;;;;;;9.80;67.66;97439.16;10430954;28;20053;-60
2024/02/09 00:37:06;;;;;;;6.85;2.70;;;;;;;9.85;67.50;97438.72;10427002;28;20130;-60
2024/02/09 00:42:12;;;;;;;8.65;4.10;;;;;;;9.79;67.77;97439.31;10431123;28;20059;-60
2024/02/09 00:47:14;;;;;;;16.20;3.40;;;;;;;9.92;67.53;97434.53;10429919;28;20041;-60
2024/02/09 00:52:16;;;;;;;12.98;2.60;;;;;;;9.94;67.58;97424.75;10429314;28;20072;-60
2024/02/09 00:57:18;;;;;;;7.93;2.70;;;;;;;9.99;67.40;97423.34;10430692;28;20202;-60
2024/02/09 01:02:24;;;;;;;5.57;1.65;;;;;;;10.12;67.15;97420.38;10429371;28;20060;-60
2024/02/09 01:07:26;;;;;;;6.88;1.92;;;;;;;10.16;66.82;97416.47;10430211;28;20465;-60
2024/02/09 03:04:47;;;;;;;1.40;0.80;;;;;;;10.29;65.16;97281.09;10435238;28;20051;-60
2024/02/09 03:09:49;;;;;;;4.47;0.88;;;;;;;10.19;64.92;97283.81;10436354;28;20603;-60
2024/02/09 03:14:53;;;;;;;2.97;1.10;;;;;;;10.32;64.80;97275.56;10435413;28;20041;-60
2024/02/09 03:20:00;;;;;;;4.13;1.00;;;;;;;10.37;64.97;97281.16;10437270;28;20052;-60
2024/02/09 03:25:04;;;;;;;0.82;0.65;;;;;;;10.33;64.88;97280.66;10436664;28;20049;-60
2024/02/09 03:30:08;;;;;;;1.20;0.88;;;;;;;10.26;65.35;97270.94;10435974;28;20576;-60
2024/02/09 03:35:12;;;;;;;3.03;1.33;;;;;;;10.25;65.27;97277.97;10435336;28;20527;-60
2024/02/09 03:40:14;;;;;;;1.63;0.80;;;;;;;10.20;65.51;97269.78;10434474;28;20138;-60
2024/02/09 03:45:17;;;;;;;1.30;0.88;;;;;;;10.35;65.13;97268.25;10435593;28;20060;-60
2024/02/09 03:50:19;;;;;;;1.73;0.95;;;;;;;10.33;65.17;97271.97;10430178;28;20048;-60
2024/02/09 03:55:21;;;;;;;1.52;0.80;;;;;;;10.43;64.89;97263.06;10434910;28;20131;-60
2024/02/09 04:00:23;;;;;;;1.80;1.00;;;;;;;10.37;64.92;97261.06;10433512;28;20048;-59
2024/02/09 04:05:25;;;;;;;0.47;0.47;;;;;;;10.24;65.32;97263.28;10432853;28;20049;-60
2024/02/09 04:10:37;;;;;;;1.48;0.80;;;;;;;10.36;64.94;97256.81;10432387;28;20044;-60
2024/02/09 04:15:46;;;;;;;2.45;1.40;;;;;;;10.31;64.94;97251.25;10434605;28;20429;-60
2024/02/09 04:20:49;;;;;;;2.97;1.38;;;;;;;10.41;64.89;97253.72;10434310;28;20068;-60
2024/02/09 04:25:51;;;;;;;2.33;1.08;;;;;;;10.36;64.94;97250.75;10434740;28;20045;-60
2024/02/09 04:30:53;;;;;;;1.60;0.82;;;;;;;10.41;64.89;97248.50;10433759;28;20041;-60
2024/02/09 04:35:56;;;;;;;4.57;1.13;;;;;;;10.39;64.84;97251.28;10432208;28;20682;-60
2024/02/09 04:40:58;;;;;;;1.83;1.02;;;;;;;10.39;65.03;97245.22;10432058;28;20151;-60
2024/02/09 04:46:00;;;;;;;1.85;0.80;;;;;;;10.33;65.28;97238.03;10433651;28;20148;-60
2024/02/09 04:51:06;;;;;;;3.22;0.75;;;;;;;10.35;65.27;97230.84;10433416;28;20041;-60
2024/02/09 04:56:09;;;;;;;0.73;0.60;;;;;;;10.35;65.11;97234.28;10433839;28;20049;-60
2024/02/09 05:01:11;;;;;;;2.10;0.85;;;;;;;10.35;65.27;97238.69;10432321;28;20110;-60
2024/02/09 05:06:13;;;;;;;2.97;1.02;;;;;;;10.39;65.09;97229.56;10433092;28;20519;-60
2024/02/09 05:11:15;;;;;;;3.25;1.15;;;;;;;10.43;65.05;97220.44;10432546;28;20063;-60
2024/02/09 05:16:17;;;;;;;0.88;0.68;;;;;;;10.32;65.14;97210.25;10432870;28;20056;-60
2024/02/09 05:21:20;;;;;;;0.75;0.73;;;;;;;10.27;65.15;97204.69;10432676;28;20485;-60
2024/02/09 05:26:22;;;;;;;3.85;1.08;;;;;;;10.29;65.18;97200.13;10432121;28;20045;-60
2024/02/09 05:31:25;;;;;;;6.05;1.05;;;;;;;10.32;65.14;97202.41;10433198;28;20045;-60
2024/02/09 05:36:28;;;;;;;2.78;1.13;;;;;;;10.36;65.08;97209.78;10439717;28;20102;-60
2024/02/09 05:41:30;;;;;;;1.30;0.98;;;;;;;10.26;65.16;97216.09;10440498;28;20049;-60
2024/02/09 05:46:33;;;;;;;0.93;0.90;;;;;;;10.37;65.13;97218.44;10440595;28;20040;-61
2024/02/09 05:51:35;;;;;;;1.05;0.88;;;;;;;10.49;64.84;97219.81;10440188;28;20076;-60
2024/02/09 05:56:37;;;;;;;1.10;0.90;;;;;;;10.47;64.99;97212.13;10440457;28;20076;-60
2024/02/09 06:01:39;;;;;;;1.63;1.10;;;;;;;10.46;64.97;97222.75;10437898;28;20515;-60
2024/02/09 06:06:45;;;;;;;1.70;1.00;;;;;;;10.41;65.03;97212.75;10433998;28;20090;-60
2024/02/09 06:11:47;;;;;;;0.80;0.80;;;;;;;10.43;65.25;97209.97;10438942;28;20579;-60
2024/02/09 06:16:49;;;;;;;2.65;0.80;;;;;;;10.47;65.12;97216.53;10438611;28;20039;-60
2024/02/09 06:21:51;;;;;;;0.98;0.75;;;;;;;10.40;65.34;97205.06;10438696;28;20049;-60
2024/02/09 06:26:52;;;;;;;1.02;0.73;;;;;;;10.39;65.44;97190.38;10437639;28;20515;-60
2024/02/09 06:31:56;;;;;;;0.90;0.50;;;;;;;10.42;65.18;97210.94;10437742;28;20621;-60
2024/02/09 06:36:59;;;;;;;1.52;1.00;;;;;;;10.38;65.24;97218.28;10436696;28;20128;-60
2024/02/09 06:42:01;;;;;;;2.55;0.80;;;;;;;10.48;65.25;97218.97;10437851;28;20056;-60
2024/02/09 06:47:03;;;;;;;0.85;0.60;;;;;;;10.52;65.00;97228.16;10437787;28;20045;-60
2024/02/09 06:52:05;;;;;;;0.73;0.73;;;;;;;10.56;64.88;97231.28;10437281;28;20064;-60
2024/02/09 06:57:07;;;;;;;1.08;0.82;;;;;;;10.55;64.81;97228.81;10436087;28;20548;-60
2024/02/09 07:02:10;;;;;;;1.00;0.70;;;;;;;10.69;64.87;97233.44;10437338;28;20163;-59
2024/02/09 07:07:12;;;;;;;1.45;1.00;;;;;;;10.75;64.56;97235.41;10437795;28;20449;-60
2024/02/09 07:12:14;;;;;;;2.17;1.15;;;;;;;10.80;64.35;97228.75;10436230;28;20049;-60
2024/02/09 07:17:19;;;;;;;1.02;0.77;;;;;;;10.82;64.52;97242.50;10436026;28;20485;-60
2024/02/09 07:22:21;;;;;;;1.60;1.02;;;;;;;10.78;64.62;97249.00;10436800;28;20049;-60
2024/02/09 07:27:23;;;;;;;4.57;1.20;;;;;;;10.88;64.50;97241.03;10436782;28;20056;-60
2024/02/09 07:32:25;;;;;;;1.65;0.90;;;;;;;10.95;64.24;97245.47;10436740;28;20049;-60
2024/02/09 07:37:27;;;;;;;2.03;1.35;;;;;;;10.96;64.19;97241.88;10435152;28;20405;-60
2024/02/09 07:42:29;;;;;;;6.80;1.40;;;;;;;11.06;63.88;97239.97;10435999;28;20515;-60
2024/02/09 07:47:31;;;;;;;6.03;2.63;;;;;;;11.05;63.89;97242.75;10435556;28;20126;-60
2024/02/09 07:52:35;;;;;;;9.60;3.72;;;;;;;11.01;64.39;97239.59;10435242;28;20065;-60
2024/02/09 07:57:37;;;;;;;3.42;2.00;;;;;;;10.92;64.94;97232.72;10434640;28;20128;-60
2024/02/09 08:02:40;;;;;;;5.40;2.15;;;;;;;10.98;65.04;97242.53;10435762;28;20048;-60
2024/02/09 08:07:42;;;;;;;2.60;1.58;;;;;;;10.99;65.20;97233.72;10434898;28;20165;-60
2024/02/09 08:12:44;;;;;;;3.53;1.85;;;;;;;11.04;65.24;97228.03;10430494;28;20052;-60
2024/02/09 08:17:48;;;;;;;3.03;1.58;;;;;;;11.02;65.33;97230.78;10431487;28;20653;-60
2024/02/09 08:22:54;;;;;;;2.08;1.38;;;;;;;10.96;65.77;97228.81;10432936;28;20045;-60
2024/02/09 08:27:56;;;;;;;6.60;1.80;;;;;;;10.92;65.88;97227.50;10422834;28;20043;-60
2024/02/09 08:32:58;;;;;;;2.60;1.58;;;;;;;10.95;65.67;97232.38;10434270;28;20051;-60
2024/02/09 08:38:02;;;;;;;3.60;1.95;;;;;;;11.00;65.74;97226.69;10428394;28;20045;-60
2024/02/09 08:43:04;;;;;;;3.10;1.90;;;;;;;11.14;65.53;97221.69;10425919;28;20052;-60
2024/02/09 08:48:07;;;;;;;2.50;1.58;;;;;;;11.16;65.39;97214.50;10429797;28;20493;-59
2024/02/09 08:53:09;;;;;;;3.42;1.88;;;;;;;11.23;65.01;97207.63;10429381;28;20404;-60
2024/02/09 08:58:11;;;;;;;5.82;2.20;;;;;;;11.26;65.08;97215.16;10430321;28;20095;-60
2024/02/09 09:03:14;;;;;;;4.18;2.03;;;;;;;11.42;64.83;97210.94;10429716;28;20045;-60
2024/02/09 09:08:16;;;;;;;6.78;2.72;;;;;;;11.41;64.66;97211.91;10427481;28;20049;-60
2024/02/09 09:13:18;;;;;;;3.33;1.65;;;;;;;11.42;64.60;97208.31;10428768;28;20045;-60
2024/02/09 09:18:20;;;;;;;6.40;2.00;;;;;;;11.74;64.15;97203.91;10430249;28;20053;-60
2024/02/09 09:23:23;;;;;;;3.58;1.40;;;;;;;12.14;63.48;97197.78;10428732;28;20087;-60
2024/02/09 09:28:25;;;;;;;2.90;1.58;;;;;;;12.46;62.99;97194.25;10427227;28;20744;-60
2024/02/09 09:33:27;;;;;;;9.20;2.30;;;;;;;12.36;61.84;97194.47;10430495;28;20634;-60
2024/02/09 09:38:29;;;;;;;6.20;2.10;;;;;;;12.55;62.16;97201.13;10428120;28;20049;-60
2024/02/09 09:43:31;;;;;;;3.13;1.60;;;;;;;12.53;61.63;97206.53;10425406;28;20171;-60
2024/02/09 09:48:34;;;;;;;4.57;1.80;;;;;;;12.43;62.07;97205.94;10427473;28;20075;-60
2024/02/09 09:53:36;;;;;;;9.32;1.90;;;;;;;12.43;61.89;97205.09;10431393;28;20087;-60
2024/02/09 09:58:39;;;;;;;5.30;2.10;;;;;;;12.45;61.50;97203.94;10431258;28;20080;-60
2024/02/09 10:03:42;;;;;;;4.70;1.80;;;;;;;12.43;61.03;97187.59;10431307;28;20053;-60
2024/02/09 10:08:46;;;;;;;4.40;1.52;;;;;;;12.31;61.74;97196.78;10429469;28;20049;-60
2024/02/09 10:13:53;;;;;;;7.82;2.10;;;;;;;12.44;61.53;97202.31;10428435;28;20056;-60
2024/02/09 10:18:55;;;;;;;5.03;1.85;;;;;;;12.63;61.14;97196.66;10430684;28;20044;-60
2024/02/09 10:23:58;;;;;;;3.95;1.73;;;;;;;12.66;60.67;97192.91;10435241;28;20049;-60
2024/02/09 10:29:00;;;;;;;4.43;1.85;;;;;;;12.72;60.70;97205.31;10436548;28;20068;-60
2024/02/09 10:34:03;;;;;;;5.95;2.22;;;;;;;12.82;60.19;97187.56;10435486;28;20064;-60
2024/02/09 10:39:07;;;;;;;4.90;2.22;;;;;;;12.96;60.12;97195.50;10437366;28;20076;-60
2024/02/09 10:44:10;;;;;;;3.30;1.73;;;;;;;13.09;59.70;97192.31;10437174;28;20612;-60
2024/02/09 10:49:14;;;;;;;7.93;2.20;;;;;;;13.35;58.91;97178.88;10437585;28;20140;-60
2024/02/09 10:54:25;;;;;;;8.02;2.50;;;;;;;13.63;58.30;97190.50;10438085;28;20064;-59
2024/02/09 10:59:29;;;;;;;3.63;1.80;;;;;;;13.88;58.82;97199.78;10432011;28;20928;-59
2024/02/09 11:04:33;;;;;;;2.70;1.50;;;;;;;13.93;58.56;97192.19;10433494;28;20056;-60
2024/02/09 11:09:37;;;;;;;5.25;1.50;;;;;;;13.92;57.84;97181.88;10422038;28;20410;-60
2024/02/09 11:14:44;;;;;;;6.50;2.05;;;;;;;14.24;57.50;97178.91;10431155;28;20428;-60
2024/02/09 11:19:46;;;;;;;3.42;1.70;;;;;;;14.25;56.96;97155.06;10424554;28;20045;-60
2024/02/09 11:24:48;;;;;;;3.55;1.60;;;;;;;14.16;56.84;97156.16;10426599;28;20493;-60
2024/02/09 11:29:51;;;;;;;5.60;1.90;;;;;;;14.26;56.92;97151.44;10423139;28;20041;-60
2024/02/09 11:34:55;;;;;;;6.05;1.77;;;;;;;14.18;57.02;97153.34;10429764;28;20110;-60
2024/02/09 11:39:58;;;;;;;4.78;2.13;;;;;;;13.74;57.24;97148.84;10431647;28;20044;-60
2024/02/09 11:45:01;;;;;;;4.32;1.80;;;;;;;13.70;57.30;97144.94;10434868;28;20041;-60
2024/02/09 11:50:03;;;;;;;7.13;2.45;;;;;;;13.66;57.70;97142.84;10434487;28;20045;-60
2024/02/09 11:55:06;;;;;;;4.13;1.63;;;;;;;13.50;57.01;97133.31;10431606;28;20041;-59
2024/02/09 12:00:08;;;;;;;4.22;2.05;;;;;;;13.64;57.46;97143.03;10436123;28;20036;-60
2024/02/09 12:05:11;;;;;;;5.15;1.95;;;;;;;13.59;56.99;97139.31;10428954;28;20053;-59
2024/02/09 12:10:13;;;;;;;3.20;1.83;;;;;;;13.56;57.25;97137.84;10431472;28;20147;-59
2024/02/09 12:15:19;;;;;;;5.88;1.77;;;;;;;13.60;56.98;97135.69;10431378;28;20056;-60
2024/02/09 12:20:21;;;;;;;6.85;2.08;;;;;;;13.71;56.87;97137.91;10432955;28;20127;-60
2024/02/09 12:25:24;;;;;;;6.50;2.42;;;;;;;13.83;56.75;97131.22;10433333;28;20564;-59
2024/02/09 12:30:29;;;;;;;4.30;1.70;;;;;;;13.94;56.37;97127.31;10429798;28;20102;-60
2024/02/09 12:35:31;;;;;;;5.07;1.77;;;;;;;13.82;56.42;97126.13;10430581;28;20057;-60
2024/02/09 12:40:34;;;;;;;4.18;1.80;;;;;;;13.80;56.44;97138.63;10426989;28;20691;-60
2024/02/09 12:45:44;;;;;;;4.53;2.20;;;;;;;13.71;56.02;97133.47;10424905;28;21014;-60
2024/02/09 12:50:52;;;;;;;6.65;3.15;;;;;;;13.83;56.68;97136.47;10428089;28;20600;-60
2024/02/09 12:55:57;;;;;;;7.80;2.92;;;;;;;13.95;56.45;97132.38;10425327;28;20044;-60
2024/02/09 13:01:01;;;;;;;3.45;1.80;;;;;;;13.90;56.44;97131.31;10424346;28;20049;-60
2024/02/09 13:06:04;;;;;;;3.47;1.60;;;;;;;13.71;56.89;97138.72;10426558;28;20044;-60
2024/02/09 13:11:07;;;;;;;3.67;1.52;;;;;;;13.59;56.91;97147.19;10429727;28;20049;-59
2024/02/09 13:16:12;;;;;;;4.43;1.40;;;;;;;13.74;56.97;97135.72;10431503;28;20060;-59
2024/02/09 13:21:15;;;;;;;5.07;1.58;;;;;;;13.66;57.03;97142.84;10428316;28;20047;-60
2024/02/09 13:26:17;;;;;;;4.40;1.85;;;;;;;13.50;57.61;97132.50;10428039;28;20041;-60
2024/02/09 13:31:19;;;;;;;1.88;1.42;;;;;;;13.38;57.88;97129.44;10425659;28;20936;-60
2024/02/09 13:36:21;;;;;;;3.95;1.60;;;;;;;13.41;57.84;97134.34;10443557;28;20052;-60
2024/02/09 13:41:23;;;;;;;5.55;1.85;;;;;;;13.31;57.66;97140.84;10425021;28;20619;-60
2024/02/09 13:46:27;;;;;;;2.97;1.63;;;;;;;13.42;58.11;97137.78;10441152;28;20416;-60
2024/02/09 13:51:30;;;;;;;4.78;1.52;;;;;;;13.68;57.77;97140.88;10427085;28;20068;-59
2024/02/09 13:56:33;;;;;;;3.47;1.73;;;;;;;13.78;57.18;97129.09;10432579;28;20052;-59
2024/02/09 14:01:38;;;;;;;5.32;2.15;;;;;;;13.74;56.60;97130.47;10434082;28;20084;-59
2024/02/09 14:06:42;;;;;;;10.48;1.90;;;;;;;13.76;56.84;97123.22;10434520;28;20138;-60
2024/02/09 14:11:44;;;;;;;3.38;1.77;;;;;;;13.53;57.17;97126.91;10435034;28;20041;-60
2024/02/09 14:16:49;;;;;;;2.42;1.48;;;;;;;13.57;56.69;97129.00;10436901;28;20056;-59
2024/02/09 14:21:51;;;;;;;2.67;1.50;;;;;;;13.63;57.05;97117.78;10438863;28;20045;-60
2024/02/09 14:26:53;;;;;;;3.00;1.52;;;;;;;13.58;56.88;97119.28;10435984;28;20497;-60
2024/02/09 14:31:55;;;;;;;4.90;1.65;;;;;;;13.70;56.47;97118.69;10438381;28;20080;-60
2024/02/09 14:36:57;;;;;;;3.78;1.55;;;;;;;13.91;56.08;97098.78;10438249;28;20053;-61
2024/02/09 14:41:59;;;;;;;4.57;1.60;;;;;;;13.74;56.28;97098.94;10438170;28;20044;-61
2024/02/09 14:47:01;;;;;;;5.07;1.98;;;;;;;13.78;56.31;97097.59;10436569;28;20148;-58
2024/02/09 14:52:03;;;;;;;3.95;1.88;;;;;;;13.84;56.28;97095.25;10437212;28;20037;-58
2024/02/09 14:57:06;;;;;;;8.38;2.08;;;;;;;13.90;55.91;97092.72;10435502;28;20052;-58
2024/02/09 15:02:10;;;;;;;5.57;1.98;;;;;;;13.84;55.35;97092.63;10437073;28;20060;-58
2024/02/09 15:07:16;;;;;;;5.55;1.50;;;;;;;13.88;55.55;97097.31;10434847;28;21304;-58
2024/02/09 15:12:18;;;;;;;7.38;1.63;;;;;;;13.85;55.80;97102.94;10435923;28;20057;-58
2024/02/09 15:17:22;;;;;;;2.92;1.70;;;;;;;13.74;55.87;97098.13;10436012;28;20512;-57
2024/02/09 15:22:26;;;;;;;6.50;3.00;;;;;;;13.81;55.81;97103.47;10433956;28;20762;-58
2024/02/09 15:27:28;;;;;;;6.80;2.83;;;;;;;13.81;55.95;97100.84;10436540;28;20492;-58
2024/02/09 15:32:30;;;;;;;13.23;3.25;;;;;;;13.71;55.81;97107.19;10434187;28;20131;-58
2024/02/09 15:37:32;;;;;;;4.55;2.53;;;;;;;13.55;56.28;97104.72;10435347;28;20114;-58
2024/02/09 15:42:34;;;;;;;5.78;1.98;;;;;;;13.52;56.37;97101.63;10436111;28;20037;-58
2024/02/09 15:47:36;;;;;;;5.18;2.42;;;;;;;13.57;56.54;97099.28;10435842;28;20053;-58
2024/02/09 15:52:38;;;;;;;9.57;3.45;;;;;;;13.46;56.54;97090.03;10435377;28;20040;-58
2024/02/09 15:57:40;;;;;;;6.80;2.30;;;;;;;13.37;56.69;97095.50;10433455;28;20052;-58
2024/02/09 16:02:45;;;;;;;5.38;2.28;;;;;;;13.34;56.98;97101.94;10435258;28;20045;-58
2024/02/09 16:07:47;;;;;;;3.10;1.50;;;;;;;13.26;57.20;97098.56;10435272;28;20386;-58
2024/02/09 16:12:51;;;;;;;12.10;4.60;;;;;;;13.16;57.11;97095.34;10434415;28;20041;-58
2024/02/09 16:17:56;;;;;;;17.27;3.08;;;;;;;13.01;57.49;97087.44;10433798;28;20056;-58
2024/02/09 16:22:58;;;;;;;8.70;2.85;;;;;;;12.92;57.57;97098.97;10434491;28;20048;-58
2024/02/09 16:28:02;;;;;;;7.93;4.05;;;;;;;12.83;57.75;97097.41;10434354;28;20055;-58
2024/02/09 16:33:04;;;;;;;16.13;4.13;;;;;;;12.80;57.82;97103.78;10431423;28;20056;-58
2024/02/09 16:38:06;;;;;;;25.17;8.40;;;;;;;12.69;58.34;97111.25;10433651;28;20048;-58
2024/02/09 16:43:08;;;;;;;7.55;2.58;;;;;;;12.52;58.58;97091.34;10432614;28;20591;-58
2024/02/09 16:48:10;;;;;;;6.63;2.40;;;;;;;12.40;58.75;97085.69;10433228;28;20405;-55
2024/02/09 16:53:14;;;;;;;5.95;2.45;;;;;;;12.27;58.98;97095.06;10433375;28;20055;-58
2024/02/09 16:58:19;;;;;;;8.55;3.63;;;;;;;12.21;59.37;97091.34;10432881;28;20061;-58
2024/02/09 17:03:22;;;;;;;5.88;2.10;;;;;;;12.05;59.76;97096.59;10429167;28;20484;-58
2024/02/09 17:08:25;;;;;;;2.60;1.70;;;;;;;12.03;59.78;97098.56;10431457;28;20051;-58
2024/02/09 17:13:27;;;;;;;8.82;2.17;;;;;;;12.02;59.85;97108.25;10432622;28;20548;-58
2024/02/09 17:18:29;;;;;;;5.32;1.95;;;;;;;11.93;60.15;97105.81;10427583;28;20048;-58
2024/02/09 17:23:31;;;;;;;5.43;2.55;;;;;;;11.88;60.50;97108.13;10431776;28;20075;-58
2024/02/09 17:28:34;;;;;;;10.57;2.53;;;;;;;11.90;60.55;97099.13;10431096;28;20049;-58
2024/02/09 17:33:36;;;;;;;5.90;2.10;;;;;;;11.95;60.57;97106.47;10425629;28;20457;-58
2024/02/09 17:38:39;;;;;;;6.15;1.70;;;;;;;11.93;60.75;97105.81;10416973;28;20080;-58
2024/02/09 17:43:41;;;;;;;3.05;1.70;;;;;;;11.93;60.76;97109.25;10425904;28;20120;-61
2024/02/09 17:48:43;;;;;;;3.90;1.92;;;;;;;12.05;60.53;97114.94;10423816;28;20616;-61
2024/02/09 17:53:45;;;;;;;4.75;1.70;;;;;;;12.11;60.47;97109.84;10424612;28;20645;-61
2024/02/09 17:58:47;;;;;;;7.18;2.38;;;;;;;12.18;60.30;97111.78;10429529;28;20055;-58
2024/02/09 18:03:49;;;;;;;4.00;1.77;;;;;;;12.13;60.43;97120.16;10428872;28;20581;-58
2024/02/09 18:08:51;;;;;;;3.58;1.50;;;;;;;12.07;60.64;97119.03;10426910;28;20836;-58
2024/02/09 18:13:53;;;;;;;4.78;1.60;;;;;;;12.05;60.77;97120.19;10425632;28;20044;-59
2024/02/09 18:18:56;;;;;;;6.20;1.73;;;;;;;12.06;60.75;97117.41;10427475;28;20041;-58
2024/02/09 18:23:58;;;;;;;5.75;2.30;;;;;;;11.96;61.08;97121.22;10428216;28;20053;-58
2024/02/09 18:29:00;;;;;;;3.40;1.60;;;;;;;11.97;61.01;97120.22;10429393;28;20516;-58
2024/02/09 18:34:02;;;;;;;8.38;2.15;;;;;;;11.96;61.15;97114.19;10428000;28;20064;-58
2024/02/09 18:39:04;;;;;;;3.00;1.38;;;;;;;11.97;61.19;97115.78;10429530;28;20045;-58
2024/02/09 18:44:06;;;;;;;2.88;1.73;;;;;;;11.99;61.30;97115.63;10432109;28;20126;-59
2024/02/09 18:49:09;;;;;;;2.13;1.38;;;;;;;12.00;61.52;97114.66;10433604;28;20516;-59
2024/02/09 18:54:12;;;;;;;3.17;1.63;;;;;;;12.00;61.32;97120.72;10433245;28;20041;-59
2024/02/09 18:59:15;;;;;;;4.72;2.40;;;;;;;12.03;61.47;97119.53;10434214;28;20386;-59
2024/02/09 19:04:17;;;;;;;7.25;2.47;;;;;;;12.00;61.46;97132.97;10430605;28;20045;-59
2024/02/09 19:09:20;;;;;;;4.53;1.67;;;;;;;11.98;61.68;97127.09;10433358;28;20187;-59
2024/02/09 19:14:26;;;;;;;6.18;2.38;;;;;;;12.09;61.16;97124.91;10431216;28;20044;-59
2024/02/09 19:19:28;;;;;;;5.35;2.45;;;;;;;12.09;61.45;97124.09;10432729;28;20140;-59
2024/02/09 19:24:30;;;;;;;7.80;2.92;;;;;;;11.95;62.11;97123.00;10435158;28;20052;-59
2024/02/09 19:29:34;;;;;;;12.50;2.05;;;;;;;11.91;62.40;97118.25;10436146;28;20047;-59
2024/02/09 19:34:41;;;;;;;7.40;2.88;;;;;;;11.84;62.91;97120.75;10434758;28;20053;-59
2024/02/09 19:39:45;;;;;;;12.73;4.20;;;;;;;11.81;63.02;97130.72;10435384;28;20061;-59
2024/02/09 19:44:47;;;;;;;18.25;4.32;;;;;;;11.62;63.83;97118.03;10433867;28;20137;-59
2024/02/09 19:49:52;;;;;;;13.38;4.05;;;;;;;11.68;63.56;97126.00;10434173;28;20127;-59
2024/02/09 19:54:56;;;;;;;8.57;3.88;;;;;;;11.70;63.68;97136.34;10433796;28;20049;-59
2024/02/09 19:59:59;;;;;;;12.95;5.05;;;;;;;11.60;63.86;97133.06;10427888;28;20214;-59
2024/02/09 20:05:03;;;;;;;10.90;4.13;;;;;;;11.60;63.96;97135.69;10430841;28;20064;-59
2024/02/09 20:10:08;;;;;;;8.68;2.33;;;;;;;11.62;63.90;97131.09;10427254;28;20785;-59
2024/02/09 20:15:17;;;;;;;18.10;7.63;;;;;;;11.57;63.88;97133.38;10429725;28;20045;-61
2024/02/09 20:20:20;;;;;;;5.82;2.35;;;;;;;11.57;64.04;97136.00;10427454;28;20045;-61
2024/02/09 20:25:22;;;;;;;2.00;1.17;;;;;;;11.49;64.02;97136.00;10422385;28;20052;-62
2024/02/09 20:30:28;;;;;;;2.42;1.50;;;;;;;11.55;64.02;97133.56;10422048;28;20068;-62
2024/02/09 20:35:29;;;;;;;2.40;1.20;;;;;;;11.51;64.13;97141.91;10424472;28;20052;-62
2024/02/09 20:40:33;;;;;;;2.17;1.40;;;;;;;11.48;64.17;97150.09;10425737;28;20037;-62
2024/02/09 20:45:36;;;;;;;4.97;2.08;;;;;;;11.47;64.38;97143.22;10423196;28;20368;-61
2024/02/09 20:50:42;;;;;;;4.80;1.88;;;;;;;11.38;64.56;97137.16;10420082;28;20053;-62
2024/02/09 20:55:45;;;;;;;2.65;1.15;;;;;;;11.38;64.47;97144.22;10421070;28;20533;-62
2024/02/09 21:00:47;;;;;;;2.08;1.23;;;;;;;11.46;64.40;97146.81;10425922;28;20048;-62
2024/02/09 21:05:51;;;;;;;3.05;1.35;;;;;;;11.52;64.26;97146.97;10426922;28;20049;-62
2024/02/09 21:10:55;;;;;;;2.15;1.25;;;;;;;11.49;64.36;97151.72;10430983;28;22398;-61
2024/02/09 21:16:01;;;;;;;1.98;1.10;;;;;;;11.50;64.38;97146.31;10429215;28;20053;-62
2024/02/09 21:21:06;;;;;;;1.00;0.80;;;;;;;11.39;64.58;97145.84;10430632;28;20051;-62
2024/02/09 21:26:09;;;;;;;1.75;1.23;;;;;;;11.44;64.76;97143.56;10431167;28;20075;-62
2024/02/09 21:31:14;;;;;;;1.08;0.90;;;;;;;11.43;64.64;97147.16;10431537;28;20041;-62
2024/02/09 21:36:17;;;;;;;1.30;0.68;;;;;;;11.49;64.59;97146.47;10429856;28;20149;-61
2024/02/09 21:41:19;;;;;;;0.88;0.57;;;;;;;11.43;64.56;97141.91;10431209;28;20059;-61
2024/02/09 21:46:21;;;;;;;1.63;1.08;;;;;;;11.26;64.78;97147.16;10430246;28;20044;-62
2024/02/09 21:51:23;;;;;;;0.57;0.57;;;;;;;11.28;65.07;97142.56;10429166;28;20049;-61
2024/02/09 21:56:25;;;;;;;4.03;0.80;;;;;;;11.29;65.07;97140.78;10427594;28;20053;-61
2024/02/09 22:01:28;;;;;;;1.50;0.95;;;;;;;11.30;65.03;97148.44;10429298;28;20037;-62
2024/02/09 22:06:31;;;;;;;3.50;1.48;;;;;;;11.26;65.32;97147.16;10429182;28;20060;-61
2024/02/09 22:11:35;;;;;;;1.27;0.90;;;;;;;11.19;65.64;97156.59;10429259;28;20045;-61
2024/02/09 22:16:37;;;;;;;1.27;0.88;;;;;;;11.24;65.59;97161.38;10435673;28;20045;-61
2024/02/09 22:21:39;;;;;;;1.23;0.85;;;;;;;11.18;65.72;97160.22;10437660;28;20132;-61
2024/02/09 22:26:41;;;;;;;1.33;1.10;;;;;;;11.10;65.87;97167.25;10430682;28;20056;-61
2024/02/09 22:31:43;;;;;;;1.55;0.80;;;;;;;11.07;65.92;97157.13;10436539;28;20048;-61
2024/02/09 22:36:46;;;;;;;5.03;1.50;;;;;;;11.00;66.13;97164.75;10430714;28;20124;-61
2024/02/09 22:41:50;;;;;;;2.55;0.93;;;;;;;10.99;65.85;97164.91;10436559;28;20036;-61
2024/02/09 22:46:54;;;;;;;1.98;1.00;;;;;;;10.98;65.98;97169.31;10434687;28;20047;-61
2024/02/09 22:51:59;;;;;;;3.50;1.50;;;;;;;10.94;66.10;97162.78;10435422;28;20052;-61
2024/02/09 22:57:01;;;;;;;6.43;2.25;;;;;;;10.84;66.47;97166.50;10434642;28;20057;-61
2024/02/09 23:02:03;;;;;;;4.97;2.10;;;;;;;10.74;66.77;97171.88;10432934;28;20048;-61
2024/02/09 23:07:06;;;;;;;3.92;2.15;;;;;;;10.68;66.88;97175.13;10434817;28;20048;-61
2024/02/09 23:12:08;;;;;;;2.78;1.80;;;;;;;10.64;66.88;97165.16;10432561;28;20677;-61
2024/02/09 23:17:10;;;;;;;3.83;2.25;;;;;;;10.69;67.08;97168.09;10432482;28;20131;-61
2024/02/09 23:22:14;;;;;;;3.70;2.00;;;;;;;10.75;67.09;97168.28;10433197;28;20051;-61
2024/02/09 23:27:16;;;;;;;3.53;1.92;;;;;;;10.82;66.72;97164.06;10433035;28;20041;-61
2024/02/09 23:32:18;;;;;;;2.97;1.80;;;;;;;10.88;66.59;97168.66;10433246;28;20064;-61
2024/02/09 23:37:20;;;;;;;1.67;1.25;;;;;;;10.87;66.70;97166.16;10432308;28;20149;-61
2024/02/09 23:42:23;;;;;;;3.83;1.38;;;;;;;10.80;66.47;97166.03;10430236;28;20080;-61
2024/02/09 23:47:27;;;;;;;3.88;1.20;;;;;;;10.61;66.74;97165.47;10430369;28;20441;-61
2024/02/09 23:52:29;;;;;;;2.75;1.38;;;;;;;10.48;67.24;97169.34;10432687;28;20493;-61
2024/02/09 23:57:32;;;;;;;1.80;1.13;;;;;;;10.49;67.36;97171.00;10432596;28;20059;-61
